createdAt,value
2018-01-19T00:00:36.707Z,96.70
2018-01-19T00:03:05.886Z,96.70
2018-01-19T00:05:45.939Z,96.90
2018-01-19T00:08:25.914Z,97.10
2018-01-19T00:10:56.208Z,96.70
2018-01-19T00:16:25.203Z,96.50
2018-01-19T00:18:56.064Z,96.90
2018-01-19T00:21:27.159Z,97.20
2018-01-19T00:23:58.008Z,96.90
2018-01-19T00:26:27.777Z,96.90
2018-01-19T00:28:57.031Z,97.10
2018-01-19T00:31:27.150Z,96.50
2018-01-19T00:33:57.274Z,96.50
2018-01-19T00:36:27.364Z,96.80
2018-01-19T00:38:59.949Z,96.70
2018-01-19T00:41:29.942Z,96.30
2018-01-19T00:43:59.383Z,96.30
2018-01-19T00:46:28.463Z,96.40
2018-01-19T00:48:57.686Z,96.40
2018-01-19T00:51:27.064Z,96.60
2018-01-19T00:54:00.009Z,96.50
2018-01-19T00:56:33.321Z,96.60
2018-01-19T00:59:02.806Z,96.30
2018-01-19T01:01:32.121Z,96.10
2018-01-19T01:04:02.289Z,95.90
2018-01-19T01:06:31.892Z,95.80
2018-01-19T01:09:01.935Z,96.10
2018-01-19T01:11:31.677Z,95.90
2018-01-19T01:14:01.288Z,96.10
2018-01-19T01:16:35.029Z,96.40
2018-01-19T01:19:17.693Z,96.60
2018-01-19T01:21:47.165Z,96.70
2018-01-19T01:24:16.305Z,96.70
2018-01-19T01:26:52.533Z,96.70
2018-01-19T01:29:21.704Z,96.80
2018-01-19T01:31:51.265Z,96.40
2018-01-19T01:34:20.376Z,96.70
2018-01-19T01:36:50.221Z,96.20
2018-01-19T01:39:20.626Z,96.20
2018-01-19T01:41:50.772Z,96.40
2018-01-19T01:44:21.993Z,96.50
2018-01-19T01:46:51.356Z,96.50
2018-01-19T01:49:20.524Z,96.70
2018-01-19T01:51:50.749Z,96.90
2018-01-19T01:54:20.778Z,96.90
2018-01-19T01:56:49.897Z,96.90
2018-01-19T01:59:18.931Z,96.90
2018-01-19T02:01:48.044Z,96.80
2018-01-19T02:04:17.354Z,97.10
2018-01-19T02:06:47.137Z,97.30
2018-01-19T02:09:17.064Z,97.20
2018-01-19T02:11:46.035Z,97.20
2018-01-19T02:14:15.684Z,97.00
2018-01-19T02:16:45.441Z,97.00
2018-01-19T02:19:14.545Z,97.00
2018-01-19T02:21:43.625Z,97.20
2018-01-19T02:24:12.676Z,97.10
2018-01-19T02:26:43.587Z,97.00
2018-01-19T02:29:12.971Z,96.80
2018-01-19T02:31:43.129Z,97.30
2018-01-19T02:34:13.264Z,97.20
2018-01-19T02:36:42.661Z,97.20
2018-01-19T02:39:16.581Z,96.90
2018-01-19T02:41:47.464Z,96.90
2018-01-19T02:44:17.110Z,96.90
2018-01-19T02:46:46.496Z,96.90
2018-01-19T02:49:25.857Z,96.80
2018-01-19T02:51:57.088Z,96.40
2018-01-19T02:54:27.431Z,96.50
2018-01-19T02:56:57.996Z,96.60
2018-01-19T02:59:28.533Z,96.50
2018-01-19T03:01:58.956Z,96.40
2018-01-19T03:04:30.099Z,96.60
2018-01-19T03:07:06.368Z,96.40
2018-01-19T03:09:37.188Z,96.20
2018-01-19T03:12:10.237Z,96.20
2018-01-19T03:14:54.184Z,96.20
2018-01-19T03:17:37.265Z,96.10
2018-01-19T03:20:07.241Z,96.20
2018-01-19T03:22:36.304Z,96.20
2018-01-19T03:25:05.516Z,96.20
2018-01-19T03:27:34.847Z,96.30
2018-01-19T03:30:04.090Z,96.20
2018-01-19T03:32:33.226Z,96.10
2018-01-19T03:35:02.267Z,96.00
2018-01-19T03:37:31.415Z,95.50
2018-01-19T03:40:00.503Z,95.30
2018-01-19T03:42:30.523Z,95.40
2018-01-19T03:45:00.032Z,95.50
2018-01-19T03:47:29.236Z,95.60
2018-01-19T03:49:59.295Z,95.10
2018-01-19T03:52:29.147Z,95.10
2018-01-19T03:54:58.316Z,95.30
2018-01-19T03:57:28.286Z,95.40
2018-01-19T03:59:57.540Z,95.40
2018-01-19T04:02:26.670Z,95.20
2018-01-19T04:04:56.482Z,95.50
2018-01-19T04:07:26.415Z,95.60
2018-01-19T04:09:55.427Z,95.60
2018-01-19T04:12:24.647Z,95.90
2018-01-19T04:14:54.517Z,96.20
2018-01-19T04:17:24.544Z,96.20
2018-01-19T04:19:53.763Z,96.00
2018-01-19T04:22:23.210Z,96.20
2018-01-19T04:24:52.999Z,96.20
2018-01-19T04:27:22.334Z,96.20
2018-01-19T04:29:52.394Z,96.60
2018-01-19T04:32:21.425Z,96.60
2018-01-19T04:34:51.775Z,97.00
2018-01-19T04:37:20.856Z,97.00
2018-01-19T04:39:50.755Z,97.00
2018-01-19T04:42:19.966Z,97.00
2018-01-19T04:44:50.229Z,97.00
2018-01-19T04:47:19.278Z,97.00
2018-01-19T04:49:49.205Z,97.10
2018-01-19T04:52:19.150Z,97.10
2018-01-19T04:54:48.151Z,97.10
2018-01-19T04:57:17.355Z,97.50
2018-01-19T04:59:47.748Z,97.60
2018-01-19T05:02:16.843Z,97.60
2018-01-19T05:04:45.923Z,97.80
2018-01-19T05:07:15.960Z,97.80
2018-01-19T05:09:45.098Z,97.80
2018-01-19T05:12:15.067Z,97.70
2018-01-19T05:14:44.444Z,97.70
2018-01-19T05:17:13.626Z,97.70
2018-01-19T05:19:43.705Z,97.80
2018-01-19T05:22:12.858Z,97.70
2018-01-19T05:24:41.802Z,97.90
2018-01-19T05:27:10.819Z,97.60
2018-01-19T05:29:39.896Z,97.80
2018-01-19T05:32:09.021Z,97.70
2018-01-19T05:34:38.290Z,97.70
2018-01-19T05:37:07.431Z,97.30
2018-01-19T05:39:37.262Z,96.50
2018-01-19T05:42:07.354Z,96.80
2018-01-19T05:44:36.964Z,96.80
2018-01-19T05:47:06.561Z,96.60
2018-01-19T05:49:35.864Z,96.30
2018-01-19T05:52:05.228Z,96.40
2018-01-19T05:54:34.377Z,96.20
2018-01-19T05:57:03.991Z,96.30
2018-01-19T05:59:33.470Z,96.20
2018-01-19T06:02:03.810Z,96.30
2018-01-19T06:04:33.996Z,95.90
2018-01-19T06:07:03.406Z,95.90
2018-01-19T06:09:33.125Z,96.00
2018-01-19T06:12:02.307Z,95.80
2018-01-19T06:14:31.579Z,95.50
2018-01-19T06:17:00.766Z,95.80
2018-01-19T06:19:29.963Z,96.00
2018-01-19T06:22:00.089Z,95.80
2018-01-19T06:24:29.359Z,95.80
2018-01-19T06:26:59.599Z,95.50
2018-01-19T06:29:28.879Z,95.90
2018-01-19T06:31:58.692Z,95.40
2018-01-19T06:34:27.819Z,95.40
2018-01-19T06:36:57.120Z,95.60
2018-01-19T06:39:26.834Z,95.70
2018-01-19T06:41:56.102Z,95.40
2018-01-19T06:44:26.318Z,95.60
2018-01-19T06:47:03.949Z,95.70
2018-01-19T06:53:09.742Z,95.40
2018-01-19T06:55:39.678Z,95.00
2018-01-19T06:58:10.076Z,95.30
2018-01-19T07:00:39.691Z,95.40
2018-01-19T07:03:09.357Z,95.30
2018-01-19T07:05:38.871Z,94.90
2018-01-19T07:08:08.788Z,95.40
2018-01-19T07:10:39.064Z,95.00
2018-01-19T07:13:08.537Z,95.00
2018-01-19T07:15:39.716Z,95.40
2018-01-19T07:18:10.341Z,95.50
2018-01-19T07:20:39.828Z,95.50
2018-01-19T07:23:09.788Z,95.20
2018-01-19T07:25:40.435Z,95.40
2018-01-19T07:28:09.891Z,95.40
2018-01-19T07:30:39.981Z,95.40
2018-01-19T07:33:10.762Z,95.30
2018-01-19T07:35:41.093Z,95.40
2018-01-19T07:38:11.069Z,95.40
2018-01-19T07:40:40.797Z,95.50
2018-01-19T07:43:10.850Z,95.20
2018-01-19T07:45:42.637Z,95.50
2018-01-19T07:48:13.251Z,95.30
2018-01-19T07:50:42.811Z,95.30
2018-01-19T07:53:12.628Z,95.50
2018-01-19T07:55:42.674Z,95.40
2018-01-19T07:58:12.655Z,95.70
2018-01-19T08:00:43.976Z,95.60
2018-01-19T08:03:13.635Z,95.70
2018-01-19T08:05:43.494Z,95.60
2018-01-19T08:08:17.894Z,95.80
2018-01-19T08:10:50.228Z,95.80
2018-01-19T08:13:21.800Z,95.90
2018-01-19T08:15:52.739Z,95.70
2018-01-19T08:18:25.603Z,95.60
2018-01-19T08:20:57.527Z,95.40
2018-01-19T08:23:29.998Z,95.40
2018-01-19T08:26:08.102Z,95.10
2018-01-19T08:28:37.796Z,95.40
2018-01-19T08:31:09.201Z,95.40
2018-01-19T08:33:43.165Z,95.20
2018-01-19T08:36:13.514Z,95.10
2018-01-19T08:38:44.780Z,95.10
2018-01-19T08:41:16.410Z,94.60
2018-01-19T08:43:47.995Z,94.60
2018-01-19T08:46:19.551Z,94.60
2018-01-19T08:48:52.051Z,94.40
2018-01-19T08:51:26.599Z,94.50
2018-01-19T08:53:59.028Z,94.70
2018-01-19T08:56:31.767Z,94.00
2018-01-19T08:59:02.568Z,93.70
2018-01-19T09:01:35.553Z,93.80
2018-01-19T09:04:06.539Z,93.40
2018-01-19T09:06:38.628Z,93.60
2018-01-19T09:09:10.128Z,93.20
2018-01-19T09:11:43.578Z,92.50
2018-01-19T09:14:16.660Z,92.60
2018-01-19T09:16:56.112Z,92.90
2018-01-19T09:19:26.014Z,92.50
2018-01-19T09:21:56.106Z,92.40
2018-01-19T09:24:29.568Z,92.10
2018-01-19T09:27:00.120Z,92.10
2018-01-19T09:29:30.734Z,92.90
2018-01-19T09:32:05.838Z,92.90
2018-01-19T09:34:41.216Z,92.70
2018-01-19T09:37:10.856Z,92.80
2018-01-19T09:39:40.733Z,92.80
2018-01-19T09:42:10.549Z,92.20
2018-01-19T09:44:40.255Z,92.50
2018-01-19T09:47:12.755Z,92.00
2018-01-19T09:49:48.616Z,91.90
2018-01-19T09:52:24.062Z,91.90
2018-01-19T09:54:55.625Z,92.10
2018-01-19T09:57:27.065Z,91.90
2018-01-19T10:00:00.693Z,91.30
2018-01-19T10:02:37.208Z,91.30
2018-01-19T10:05:14.011Z,91.30
2018-01-19T10:07:44.714Z,91.50
2018-01-19T10:10:14.702Z,91.30
2018-01-19T10:12:45.569Z,91.10
2018-01-19T10:15:19.646Z,91.40
2018-01-19T10:17:50.379Z,91.20
2018-01-19T10:20:21.406Z,90.50
2018-01-19T10:22:57.897Z,90.60
2018-01-19T10:25:29.434Z,90.80
2018-01-19T10:28:00.876Z,90.20
2018-01-19T10:30:32.097Z,90.30
2018-01-19T10:33:02.762Z,89.90
2018-01-19T10:35:33.860Z,90.30
2018-01-19T10:38:05.304Z,90.40
2018-01-19T10:40:37.639Z,90.50
2018-01-19T10:43:08.463Z,90.40
2018-01-19T10:45:41.739Z,90.50
2018-01-19T10:48:11.920Z,90.80
2018-01-19T10:50:45.701Z,90.90
2018-01-19T10:53:15.305Z,90.50
2018-01-19T10:55:45.573Z,89.20
2018-01-19T10:58:15.916Z,88.30
2018-01-19T11:00:55.591Z,88.30
2018-01-19T11:03:32.788Z,87.80
2018-01-19T11:06:02.686Z,87.40
2018-01-19T11:08:33.605Z,86.50
2018-01-19T11:11:03.277Z,86.80
2018-01-19T11:13:36.764Z,86.90
2018-01-19T11:16:07.613Z,87.60
2018-01-19T11:18:45.710Z,88.00
2018-01-19T11:21:17.495Z,88.30
2018-01-19T11:23:50.094Z,88.30
2018-01-19T11:26:19.992Z,87.80
2018-01-19T11:28:55.035Z,86.30
2018-01-19T11:31:31.650Z,86.30
2018-01-19T11:34:07.460Z,85.20
2018-01-19T11:36:44.945Z,84.80
2018-01-19T11:39:17.725Z,87.10
2018-01-19T11:41:57.928Z,85.70
2018-01-19T11:44:44.446Z,85.70
2018-01-19T11:47:21.424Z,87.00
2018-01-19T11:49:59.334Z,86.60
2018-01-19T11:52:35.934Z,86.20
2018-01-19T11:55:11.943Z,87.50
2018-01-19T11:57:54.727Z,87.50
2018-01-19T12:00:28.809Z,88.20
2018-01-19T12:02:59.501Z,85.70
2018-01-19T12:05:34.758Z,86.00
2018-01-19T12:08:06.347Z,85.40
2018-01-19T12:10:38.203Z,85.40
2018-01-19T12:13:20.536Z,86.40
2018-01-19T12:16:01.752Z,85.00
2018-01-19T12:18:40.180Z,84.10
2018-01-19T12:21:16.010Z,83.80
2018-01-19T12:23:47.653Z,82.00
2018-01-19T12:26:20.690Z,81.90
2018-01-19T12:28:51.879Z,81.40
2018-01-19T12:31:23.086Z,80.70
2018-01-19T12:33:53.474Z,80.00
2018-01-19T12:36:26.590Z,80.20
2018-01-19T12:38:57.917Z,81.30
2018-01-19T12:41:39.205Z,80.50
2018-01-19T12:44:20.456Z,80.40
2018-01-19T12:46:51.647Z,78.50
2018-01-19T12:49:23.410Z,77.80
2018-01-19T12:51:55.168Z,76.80
2018-01-19T12:54:28.792Z,78.00
2018-01-19T12:57:00.527Z,77.20
2018-01-19T12:59:34.249Z,77.40
2018-01-19T13:02:14.184Z,76.80
2018-01-19T13:04:47.198Z,76.90
2018-01-19T13:07:18.990Z,77.60
2018-01-19T13:09:50.688Z,77.50
2018-01-19T13:12:27.491Z,77.40
2018-01-19T13:15:03.450Z,78.00
2018-01-19T13:17:35.003Z,77.40
2018-01-19T13:20:07.562Z,78.10
2018-01-19T13:22:46.848Z,76.40
2018-01-19T13:25:36.505Z,77.10
2018-01-19T13:28:09.314Z,76.60
2018-01-19T13:30:41.526Z,77.30
2018-01-19T13:33:12.447Z,76.90
2018-01-19T13:35:54.070Z,75.20
2018-01-19T13:38:25.010Z,73.40
2018-01-19T13:40:59.803Z,73.40
2018-01-19T13:43:33.483Z,74.00
2018-01-19T13:46:11.573Z,73.70
2018-01-19T13:48:48.439Z,75.70
2018-01-19T13:51:21.617Z,75.40
2018-01-19T13:53:53.827Z,73.90
2018-01-19T13:56:28.190Z,72.80
2018-01-19T13:59:05.142Z,73.50
2018-01-19T14:01:38.423Z,73.70
2018-01-19T14:04:21.386Z,73.70
2018-01-19T14:06:52.505Z,72.30
2018-01-19T14:09:23.078Z,71.40
2018-01-19T14:11:52.791Z,71.40
2018-01-19T14:14:25.789Z,71.60
2018-01-19T14:16:58.301Z,70.80
2018-01-19T14:19:36.510Z,70.60
2018-01-19T14:22:11.755Z,73.30
2018-01-19T14:24:46.911Z,70.70
2018-01-19T14:27:19.770Z,65.20
2018-01-19T14:29:53.903Z,64.70
2018-01-19T14:32:26.926Z,64.90
2018-01-19T14:35:03.310Z,64.00
2018-01-19T14:37:40.379Z,63.70
2018-01-19T14:40:10.562Z,62.40
2018-01-19T14:42:41.009Z,59.80
2018-01-19T14:45:16.571Z,61.20
2018-01-19T14:47:48.434Z,65.40
2018-01-19T14:50:28.583Z,68.40
2018-01-19T14:53:07.419Z,70.40
2018-01-19T14:55:39.448Z,71.50
2018-01-19T14:58:16.484Z,73.10
2018-01-19T15:00:49.097Z,73.10
2018-01-19T15:03:19.790Z,73.30
2018-01-19T15:05:53.552Z,73.60
2018-01-19T15:08:33.894Z,74.30
2018-01-19T15:11:11.944Z,74.30
2018-01-19T15:13:51.171Z,74.20
2018-01-19T15:16:22.743Z,73.80
2018-01-19T15:19:00.393Z,74.30
2018-01-19T15:21:34.594Z,74.50
2018-01-19T15:24:07.469Z,75.10
2018-01-19T15:26:44.507Z,74.90
2018-01-19T15:29:16.233Z,75.20
2018-01-19T15:32:16.382Z,75.00
2018-01-19T15:34:54.819Z,75.00
2018-01-19T15:37:28.918Z,75.60
2018-01-19T15:40:01.177Z,75.50
2018-01-19T15:42:36.026Z,75.50
2018-01-19T15:45:18.113Z,75.30
2018-01-19T15:48:04.509Z,75.20
2018-01-19T15:50:43.515Z,75.30
2018-01-19T15:53:25.607Z,74.70
2018-01-19T15:56:04.272Z,74.80
2018-01-19T15:58:44.990Z,75.30
2018-01-19T16:01:22.328Z,75.20
2018-01-19T16:04:00.960Z,75.90
2018-01-19T16:06:31.760Z,76.00
2018-01-19T16:09:08.311Z,76.20
2018-01-19T16:11:44.670Z,76.20
2018-01-19T16:14:15.362Z,76.50
2018-01-19T16:16:46.415Z,77.00
2018-01-19T16:19:23.869Z,77.10
2018-01-19T16:22:00.703Z,77.00
2018-01-19T16:24:44.650Z,77.40
2018-01-19T16:27:17.737Z,77.10
2018-01-19T16:29:48.791Z,77.80
2018-01-19T16:32:19.825Z,78.00
2018-01-19T16:34:58.189Z,78.00
2018-01-19T16:37:29.895Z,78.40
2018-01-19T16:40:14.264Z,78.20
2018-01-19T16:42:45.901Z,77.80
2018-01-19T16:45:27.092Z,77.70
2018-01-19T16:48:06.869Z,76.80
2018-01-19T16:50:46.924Z,76.90
2018-01-19T16:53:21.275Z,77.30
2018-01-19T16:55:55.352Z,76.90
2018-01-19T16:58:30.704Z,77.40
2018-01-19T17:01:03.492Z,76.90
2018-01-19T17:03:38.566Z,76.80
2018-01-19T17:08:52.887Z,77.20
2018-01-19T17:11:23.714Z,77.50
2018-01-19T17:13:53.708Z,77.60
2018-01-19T17:16:26.387Z,77.70
2018-01-19T17:18:56.482Z,77.70
2018-01-19T17:21:27.179Z,77.90
2018-01-19T17:24:04.207Z,77.90
2018-01-19T17:26:40.651Z,78.30
2018-01-19T17:29:13.186Z,78.50
2018-01-19T17:31:44.028Z,78.70
2018-01-19T17:34:15.622Z,78.60
2018-01-19T17:36:54.290Z,78.70
2018-01-19T17:39:24.488Z,78.60
2018-01-19T17:42:00.486Z,78.30
2018-01-19T17:44:34.348Z,78.30
2018-01-19T17:47:22.093Z,78.80
2018-01-19T17:50:04.859Z,78.30
2018-01-19T17:52:53.609Z,78.70
2018-01-19T17:55:29.382Z,78.70
2018-01-19T17:58:08.157Z,79.10
